Time;durP1;ratioP1;P1;durP2;ratioP2;P2;SDS_P1;SDS_P2;PMS_P1;PMS_P2;Temp;Humidity;BMP_temperature;BMP_pressure;BME280_temperature;BME280_humidity;BME280_pressure;Samples;Min_cycle;Max_cycle;Signal;HPM_P1;HPM_P2
2022/06/13 00:01:12;;;;;;;4.63;1.30;;;17.50;71.10;;;;;;5036655;28;20110;-74
2022/06/13 00:03:39;;;;;;;4.97;1.33;;;17.50;71.50;;;;;;5035087;28;20017;-74
2022/06/13 00:06:06;;;;;;;3.75;1.95;;;17.50;71.90;;;;;;5033236;28;20037;-73
2022/06/13 00:08:32;;;;;;;3.03;1.25;;;17.50;71.70;;;;;;5033105;28;20066;-74
2022/06/13 00:10:57;;;;;;;3.25;1.40;;;17.50;71.80;;;;;;5036132;28;20029;-73
2022/06/13 00:13:23;;;;;;;5.25;1.10;;;17.50;72.00;;;;;;5034397;28;20488;-73
2022/06/13 00:15:49;;;;;;;3.67;1.10;;;17.40;72.30;;;;;;5041167;28;20148;-74
2022/06/13 00:18:15;;;;;;;3.35;1.17;;;17.50;72.40;;;;;;5039077;28;20032;-74
2022/06/13 00:20:41;;;;;;;3.55;1.05;;;17.50;72.70;;;;;;5034116;28;20029;-74
2022/06/13 00:23:07;;;;;;;5.35;1.35;;;17.50;73.00;;;;;;5035249;28;20029;-73
2022/06/13 00:25:32;;;;;;;3.70;1.40;;;17.40;73.10;;;;;;5035359;28;20219;-73
2022/06/13 00:27:58;;;;;;;3.97;1.48;;;17.40;73.40;;;;;;5033506;28;20033;-73
2022/06/13 00:30:24;;;;;;;3.22;1.17;;;17.40;73.70;;;;;;5046792;28;20029;-74
2022/06/13 00:32:50;;;;;;;5.90;1.20;;;17.40;73.60;;;;;;5034128;28;20028;-73
2022/06/13 00:35:16;;;;;;;3.60;1.30;;;17.40;73.90;;;;;;5040716;28;20785;-73
2022/06/13 00:37:42;;;;;;;5.53;1.33;;;17.30;74.00;;;;;;5034424;28;20152;-73
2022/06/13 00:40:09;;;;;;;5.93;1.60;;;17.30;74.30;;;;;;5032604;28;20149;-73
2022/06/13 00:42:36;;;;;;;2.17;1.35;;;17.30;74.70;;;;;;5036654;28;20025;-74
2022/06/13 00:45:06;;;;;;;4.63;1.50;;;17.20;74.90;;;;;;5036679;28;20029;-74
2022/06/13 00:47:32;;;;;;;4.10;1.02;;;17.20;75.10;;;;;;5036733;28;20040;-73
2022/06/13 00:49:59;;;;;;;3.95;1.10;;;17.20;75.20;;;;;;5045593;28;20041;-74
2022/06/13 00:52:30;;;;;;;4.60;1.52;;;17.20;75.30;;;;;;5039381;28;20031;-73
2022/06/13 00:54:56;;;;;;;4.47;1.30;;;17.10;75.50;;;;;;5036656;28;20549;-74
2022/06/13 00:57:26;;;;;;;1.38;1.10;;;17.10;75.80;;;;;;5033642;28;20036;-73
2022/06/13 00:59:56;;;;;;;4.45;1.52;;;17.00;76.20;;;;;;5037325;28;20053;-73
2022/06/13 01:02:23;;;;;;;6.30;1.77;;;16.90;76.60;;;;;;5035147;28;20032;-73
2022/06/13 01:04:52;;;;;;;4.70;1.45;;;16.90;77.00;;;;;;5032517;28;20111;-73
2022/06/13 01:07:20;;;;;;;2.35;1.25;;;16.80;77.40;;;;;;5031686;28;20029;-73
2022/06/13 01:12:34;;;;;;;4.50;1.23;;;16.80;77.90;;;;;;5034465;28;20136;-72
2022/06/13 01:15:18;;;;;;;2.15;1.10;;;16.70;78.10;;;;;;5033299;28;20131;-74
2022/06/13 01:18:12;;;;;;;5.22;1.48;;;16.70;78.20;;;;;;5035536;28;20044;-72
2022/06/13 01:20:40;;;;;;;3.42;1.48;;;16.70;78.50;;;;;;5034263;28;20082;-73
2022/06/13 01:23:20;;;;;;;3.75;1.55;;;16.60;78.60;;;;;;5031257;28;20553;-73
2022/06/13 01:26:31;;;;;;;5.38;1.55;;;16.60;78.90;;;;;;5048713;28;20119;-72
2022/06/13 01:29:00;;;;;;;2.78;1.20;;;16.60;79.40;;;;;;5031126;28;20033;-73
2022/06/13 01:31:36;;;;;;;2.85;1.38;;;16.50;79.60;;;;;;5032730;28;20070;-74
2022/06/13 01:34:20;;;;;;;;;;;16.50;79.90;;;;;;5039594;28;20044;-73
2022/06/13 01:37:04;;;;;;;5.60;1.80;;;16.50;80.00;;;;;;5050720;28;19912;-74
2022/06/13 01:39:48;;;;;;;5.50;1.35;;;16.40;80.40;;;;;;5031973;28;20541;-74
2022/06/13 01:42:52;;;;;;;6.90;1.25;;;16.30;80.70;;;;;;5031003;28;20072;-74
2022/06/13 01:45:31;;;;;;;5.45;1.48;;;16.30;81.10;;;;;;5045367;28;20671;-73
2022/06/13 01:48:17;;;;;;;6.32;1.52;;;16.20;82.10;;;;;;5035271;28;20061;-73
2022/06/13 01:51:01;;;;;;;2.47;1.35;;;16.20;81.70;;;;;;5036251;28;20554;-73
2022/06/13 01:54:02;;;;;;;2.47;1.50;;;16.20;82.10;;;;;;5040088;28;20041;-73
2022/06/13 01:56:33;;;;;;;3.42;1.30;;;16.10;82.50;;;;;;5024391;28;20148;-74
2022/06/13 01:59:10;;;;;;;7.38;2.42;;;16.00;82.90;;;;;;5034883;28;20040;-73
2022/06/13 02:02:03;;;;;;;5.20;1.40;;;16.00;83.30;;;;;;5032524;28;20036;-73
2022/06/13 02:04:35;;;;;;;5.38;2.28;;;15.90;83.70;;;;;;5031143;28;20033;-74
2022/06/13 02:07:10;;;;;;;3.60;1.50;;;15.80;84.10;;;;;;5037096;28;20490;-74
2022/06/13 02:10:00;;;;;;;3.58;1.67;;;15.80;84.60;;;;;;5039753;28;20404;-74
2022/06/13 02:12:32;;;;;;;4.93;1.67;;;15.70;85.00;;;;;;5034796;28;20045;-73
2022/06/13 02:15:08;;;;;;;3.53;1.60;;;15.60;85.30;;;;;;5032439;28;20037;-73
2022/06/13 02:17:43;;;;;;;9.70;1.95;;;15.60;85.70;;;;;;5031722;28;20036;-73
2022/06/13 02:20:24;;;;;;;5.55;1.50;;;15.60;86.10;;;;;;5034051;28;20843;-73
2022/06/13 02:23:06;;;;;;;3.92;1.45;;;15.70;86.20;;;;;;5039188;28;20032;-73
2022/06/13 02:25:43;;;;;;;5.22;1.80;;;15.80;86.10;;;;;;5033586;28;20095;-74
2022/06/13 02:28:27;;;;;;;3.28;1.48;;;15.80;85.90;;;;;;5039435;28;20048;-73
2022/06/13 02:31:07;;;;;;;5.70;1.60;;;15.80;85.80;;;;;;5036902;28;20148;-74
2022/06/13 02:34:17;;;;;;;4.90;1.73;;;15.90;85.90;;;;;;5030425;28;20374;-74
2022/06/13 02:37:00;;;;;;;5.10;1.65;;;15.90;85.80;;;;;;5009996;28;20048;-73
2022/06/13 02:39:36;;;;;;;7.65;1.88;;;16.00;85.60;;;;;;5036447;28;20036;-74
2022/06/13 02:42:15;;;;;;;;;;;16.00;85.40;;;;;;5039944;28;20056;-74
2022/06/13 02:44:55;;;;;;;6.20;1.80;;;15.90;85.60;;;;;;5039326;28;19960;-74
2022/06/13 02:47:29;;;;;;;6.10;2.10;;;15.90;86.40;;;;;;5037119;28;20035;-73
2022/06/13 02:50:02;;;;;;;6.32;2.05;;;15.90;85.60;;;;;;5034791;28;20091;-74
2022/06/13 02:52:44;;;;;;;8.15;1.60;;;15.90;85.50;;;;;;5042920;28;20141;-74
2022/06/13 02:55:12;;;;;;;5.55;1.83;;;15.90;85.20;;;;;;5037841;28;20041;-73
2022/06/13 02:57:43;;;;;;;3.95;1.95;;;15.90;84.90;;;;;;5037435;28;20488;-74
2022/06/13 03:00:31;;;;;;;5.35;2.10;;;15.90;84.50;;;;;;5040240;28;20110;-74
2022/06/13 03:03:00;;;;;;;3.42;1.92;;;15.80;84.70;;;;;;5039374;28;20036;-74
2022/06/13 03:05:53;;;;;;;3.85;2.00;;;15.80;84.30;;;;;;5037179;28;20055;-73
2022/06/13 03:08:38;;;;;;;8.80;2.03;;;15.80;84.10;;;;;;5045174;28;20040;-74
2022/06/13 03:11:22;;;;;;;7.75;1.85;;;15.80;84.10;;;;;;5038452;28;20040;-74
2022/06/13 03:14:12;;;;;;;5.00;1.90;;;15.90;84.10;;;;;;5039892;28;20032;-73
2022/06/13 03:16:53;;;;;;;4.90;1.70;;;16.00;83.70;;;;;;5037316;28;20162;-73
2022/06/13 03:19:35;;;;;;;3.20;1.88;;;16.10;83.20;;;;;;5036832;28;20444;-74
2022/06/13 03:22:18;;;;;;;4.07;1.55;;;16.10;83.10;;;;;;5042277;28;20032;-74
2022/06/13 03:24:53;;;;;;;4.40;1.67;;;16.10;82.70;;;;;;5029142;28;20060;-73
2022/06/13 03:27:43;;;;;;;6.55;1.88;;;16.10;82.70;;;;;;5044855;28;20047;-73
2022/06/13 03:30:16;;;;;;;4.10;1.80;;;16.10;83.00;;;;;;5041945;28;20047;-74
2022/06/13 03:33:40;;;;;;;3.60;1.45;;;16.10;82.70;;;;;;5034313;28;20025;-73
2022/06/13 03:35:39;;;;;;;3.95;1.73;;;16.00;82.40;;;;;;5045013;28;20113;-74
2022/06/13 03:38:09;;;;;;;5.63;1.77;;;16.00;82.20;;;;;;5042538;28;20132;-74
2022/06/13 03:40:39;;;;;;;3.85;1.70;;;16.00;82.50;;;;;;5037899;28;20064;-73
2022/06/13 03:43:35;;;;;;;5.22;1.85;;;16.00;82.00;;;;;;5040469;28;20139;-74
2022/06/13 03:46:10;;;;;;;5.70;2.00;;;16.00;81.10;;;;;;5038721;28;20094;-73
2022/06/13 03:48:49;;;;;;;4.25;2.08;;;16.20;81.00;;;;;;5042707;28;20033;-73
2022/06/13 03:51:22;;;;;;;4.57;1.80;;;16.20;80.20;;;;;;5041106;28;20029;-73
2022/06/13 03:53:54;;;;;;;5.65;1.60;;;16.30;80.00;;;;;;5039108;28;20024;-74
2022/06/13 03:56:23;;;;;;;7.25;2.40;;;16.30;79.70;;;;;;5031572;28;20072;-74
2022/06/13 03:59:04;;;;;;;8.00;2.40;;;16.30;79.80;;;;;;5037917;28;20017;-74
2022/06/13 04:01:45;;;;;;;7.22;2.10;;;16.20;79.60;;;;;;5041145;28;20851;-74
2022/06/13 04:04:20;;;;;;;3.00;1.63;;;16.20;79.70;;;;;;5042826;28;20119;-74
2022/06/13 04:06:46;;;;;;;5.53;2.00;;;16.20;79.80;;;;;;5045375;28;20028;-74
2022/06/13 04:09:20;;;;;;;5.65;2.13;;;16.20;80.00;;;;;;5040936;28;20040;-74
2022/06/13 04:11:54;;;;;;;5.50;1.88;;;16.10;80.20;;;;;;5041017;28;20680;-73
2022/06/13 04:14:22;;;;;;;6.25;1.95;;;16.10;80.60;;;;;;5044600;28;20769;-74
2022/06/13 04:17:07;;;;;;;3.70;1.48;;;16.10;80.60;;;;;;5046991;28;20485;-74
2022/06/13 04:19:42;;;;;;;9.23;2.58;;;16.10;81.00;;;;;;5040477;28;20731;-74
2022/06/13 04:22:34;;;;;;;4.95;2.13;;;16.00;80.70;;;;;;5043827;28;20029;-73
2022/06/13 04:25:27;;;;;;;4.45;1.65;;;16.00;81.00;;;;;;5017960;28;20092;-74
2022/06/13 04:28:04;;;;;;;4.97;1.80;;;16.00;81.30;;;;;;5049124;28;20635;-74
2022/06/13 04:30:32;;;;;;;6.15;2.22;;;16.00;81.00;;;;;;5038484;28;20061;-74
2022/06/13 04:33:19;;;;;;;7.35;1.98;;;16.10;80.90;;;;;;5041524;28;20143;-73
2022/06/13 04:35:48;;;;;;;;;;;16.20;80.40;;;;;;5048860;28;20020;-74
2022/06/13 04:38:17;;;;;;;6.00;2.38;;;16.30;79.70;;;;;;5041708;28;20011;-73
2022/06/13 04:40:47;;;;;;;7.60;2.38;;;16.30;79.80;;;;;;5043932;28;20055;-74
2022/06/13 04:43:15;;;;;;;4.10;1.73;;;16.50;79.40;;;;;;5039837;28;20047;-73
2022/06/13 04:46:08;;;;;;;5.10;1.83;;;16.60;78.40;;;;;;5041810;28;20029;-74
2022/06/13 04:48:37;;;;;;;5.95;2.42;;;16.70;78.30;;;;;;5040312;28;20059;-73
2022/06/13 04:51:12;;;;;;;9.50;2.15;;;16.70;77.90;;;;;;5040697;28;20577;-74
2022/06/13 04:54:00;;;;;;;5.72;2.20;;;16.80;77.40;;;;;;5040320;28;20029;-74
2022/06/13 04:56:26;;;;;;;5.60;2.63;;;16.80;76.80;;;;;;5038344;28;20102;-74
2022/06/13 04:58:54;;;;;;;8.13;2.58;;;16.90;76.00;;;;;;5046543;28;20063;-74
2022/06/13 05:01:25;;;;;;;7.55;2.40;;;17.10;75.40;;;;;;5040062;28;20104;-73
2022/06/13 05:03:52;;;;;;;8.45;2.58;;;17.40;74.90;;;;;;5039295;28;20365;-73
2022/06/13 05:06:37;;;;;;;11.68;2.08;;;17.80;73.60;;;;;;5036585;28;20102;-74
2022/06/13 05:09:25;;;;;;;6.13;2.40;;;18.40;71.90;;;;;;5033082;28;20025;-74
2022/06/13 05:11:54;;;;;;;7.78;1.90;;;18.70;69.60;;;;;;5041176;28;20432;-74
2022/06/13 05:14:32;;;;;;;10.15;2.20;;;18.80;68.30;;;;;;5039045;28;20141;-74
2022/06/13 05:17:36;;;;;;;10.18;2.28;;;18.80;68.40;;;;;;5041277;28;20037;-74
2022/06/13 05:20:02;;;;;;;6.57;2.17;;;18.70;68.00;;;;;;5038014;28;20087;-73
2022/06/13 05:23:05;;;;;;;7.03;1.92;;;18.70;68.00;;;;;;5035181;28;20767;-74
2022/06/13 05:25:50;;;;;;;7.47;1.80;;;18.90;67.70;;;;;;5043122;28;20048;-74
2022/06/13 05:28:19;;;;;;;6.43;1.95;;;19.10;66.40;;;;;;5036411;28;20120;-74
2022/06/13 05:30:48;;;;;;;5.45;1.80;;;19.00;65.50;;;;;;5040359;28;20053;-73
2022/06/13 05:33:17;;;;;;;10.75;2.85;;;18.90;65.40;;;;;;5050635;28;20033;-74
2022/06/13 05:35:45;;;;;;;7.07;2.05;;;18.80;65.00;;;;;;5033873;28;20857;-74
2022/06/13 05:38:17;;;;;;;12.38;2.65;;;18.80;64.70;;;;;;5043872;28;20425;-74
2022/06/13 05:40:45;;;;;;;6.68;2.20;;;18.70;64.40;;;;;;5036823;28;20041;-73
2022/06/13 05:43:11;;;;;;;7.70;2.00;;;18.80;64.70;;;;;;5039588;28;20052;-74
2022/06/13 05:45:41;;;;;;;11.10;2.28;;;19.00;64.60;;;;;;5042638;28;20043;-74
2022/06/13 05:48:14;;;;;;;8.50;2.10;;;19.30;63.80;;;;;;5051551;28;20048;-74
2022/06/13 05:50:41;;;;;;;9.70;2.65;;;19.50;63.10;;;;;;5045863;28;20460;-74
2022/06/13 05:53:13;;;;;;;9.05;2.08;;;19.50;62.40;;;;;;5037932;28;20048;-74
2022/06/13 05:55:40;;;;;;;7.68;1.92;;;19.40;61.20;;;;;;5034527;28;20033;-73
2022/06/13 05:58:06;;;;;;;8.20;1.80;;;19.10;61.40;;;;;;5040204;28;20120;-73
2022/06/13 06:00:41;;;;;;;6.40;1.90;;;18.90;61.60;;;;;;5044647;28;20139;-73
2022/06/13 06:03:07;;;;;;;5.88;2.00;;;18.70;62.00;;;;;;5031145;28;20063;-74
2022/06/13 06:05:33;;;;;;;4.97;1.70;;;18.60;63.00;;;;;;5031871;28;20487;-74
2022/06/13 06:07:59;;;;;;;8.35;2.20;;;18.80;61.40;;;;;;5036211;28;20765;-74
2022/06/13 06:10:32;;;;;;;2.45;1.60;;;19.00;60.80;;;;;;5050926;28;20078;-74
2022/06/13 06:12:58;;;;;;;10.23;2.40;;;19.10;60.30;;;;;;5045404;28;20147;-74
2022/06/13 06:15:24;;;;;;;8.18;1.83;;;19.20;60.50;;;;;;5037133;28;20856;-74
2022/06/13 06:17:50;;;;;;;6.07;2.33;;;19.20;60.70;;;;;;5035790;28;20055;-74
2022/06/13 06:20:21;;;;;;;6.05;1.77;;;19.20;60.90;;;;;;5036815;28;20036;-74
2022/06/13 06:22:47;;;;;;;8.00;2.05;;;19.40;61.00;;;;;;5045585;28;20021;-74
2022/06/13 06:25:13;;;;;;;9.13;2.05;;;19.60;60.40;;;;;;5037937;28;20545;-74
2022/06/13 06:27:39;;;;;;;5.65;1.75;;;19.80;59.30;;;;;;5041186;28;20025;-74
2022/06/13 06:30:06;;;;;;;8.30;1.88;;;20.00;59.40;;;;;;5042971;28;20167;-74
2022/06/13 06:32:32;;;;;;;7.40;1.60;;;20.10;59.10;;;;;;5034959;28;20036;-74
2022/06/13 06:34:58;;;;;;;6.05;1.85;;;20.20;58.40;;;;;;5046390;28;20032;-74
2022/06/13 06:37:24;;;;;;;7.10;1.85;;;20.30;58.30;;;;;;5043368;28;20125;-73
2022/06/13 06:39:50;;;;;;;4.53;1.50;;;20.40;58.20;;;;;;5037457;28;20406;-74
2022/06/13 06:42:16;;;;;;;7.13;2.28;;;20.30;57.70;;;;;;5043073;28;20037;-74
2022/06/13 06:44:42;;;;;;;6.00;2.03;;;20.10;58.50;;;;;;5040630;28;20048;-74
2022/06/13 06:47:07;;;;;;;6.00;1.63;;;20.00;58.20;;;;;;5032379;28;20145;-74
2022/06/13 06:49:37;;;;;;;5.30;1.60;;;20.10;58.20;;;;;;5036499;28;20033;-74
2022/06/13 06:52:04;;;;;;;5.40;1.70;;;20.20;57.40;;;;;;5028683;28;20034;-74
2022/06/13 06:59:59;;;;;;;6.45;1.48;;;20.80;55.70;;;;;;5035508;28;20082;-74
2022/06/13 07:02:28;;;;;;;7.00;1.77;;;20.80;55.30;;;;;;5035562;28;20034;-74
2022/06/13 07:04:56;;;;;;;6.20;1.50;;;21.00;55.00;;;;;;5041683;28;20033;-74
2022/06/13 07:07:22;;;;;;;7.70;1.13;;;21.20;54.10;;;;;;5032911;28;20032;-74
2022/06/13 07:09:48;;;;;;;7.38;1.70;;;21.50;52.10;;;;;;5039694;28;20028;-74
2022/06/13 07:12:14;;;;;;;3.97;1.63;;;21.70;51.30;;;;;;5037516;28;20040;-74
2022/06/13 07:14:40;;;;;;;4.90;1.73;;;21.60;50.70;;;;;;5034719;28;20110;-74
2022/06/13 07:17:07;;;;;;;4.30;1.20;;;21.40;50.30;;;;;;5041722;28;20072;-74
2022/06/13 07:19:34;;;;;;;4.10;1.42;;;21.10;51.70;;;;;;5041965;28;20116;-74
2022/06/13 07:22:01;;;;;;;5.35;1.70;;;20.70;51.90;;;;;;5048824;28;20056;-74
2022/06/13 07:24:28;;;;;;;6.80;1.58;;;20.40;52.80;;;;;;5044198;28;20029;-74
2022/06/13 07:26:55;;;;;;;3.67;1.17;;;20.10;53.10;;;;;;5039242;28;20057;-74
2022/06/13 07:29:21;;;;;;;6.53;1.27;;;19.80;53.40;;;;;;5042906;28;20021;-74
2022/06/13 07:31:54;;;;;;;5.93;1.17;;;19.70;54.20;;;;;;5040324;28;20128;-74
2022/06/13 07:34:22;;;;;;;5.10;1.33;;;19.70;54.30;;;;;;5042807;28;20086;-74
2022/06/13 07:36:51;;;;;;;5.18;1.20;;;19.80;53.70;;;;;;5041350;28;20106;-74
2022/06/13 07:39:17;;;;;;;5.65;1.67;;;20.00;53.60;;;;;;5031117;28;20029;-74
2022/06/13 07:41:44;;;;;;;5.55;1.20;;;20.20;53.40;;;;;;5039931;28;20047;-74
2022/06/13 07:44:18;;;;;;;4.15;1.20;;;20.50;53.40;;;;;;5044388;28;20504;-74
2022/06/13 07:46:46;;;;;;;6.28;1.40;;;20.80;52.80;;;;;;5039810;28;20037;-74
2022/06/13 07:49:13;;;;;;;6.05;1.50;;;21.00;52.70;;;;;;5034306;28;20032;-74
2022/06/13 07:51:39;;;;;;;5.70;1.77;;;21.20;52.60;;;;;;5032080;28;20037;-74
2022/06/13 07:54:05;;;;;;;3.35;1.30;;;21.50;51.50;;;;;;5035653;28;20040;-74
2022/06/13 07:56:31;;;;;;;3.22;1.20;;;21.80;51.00;;;;;;5041319;28;20033;-74
2022/06/13 07:58:58;;;;;;;8.05;1.80;;;22.10;50.90;;;;;;5044465;28;20033;-74
2022/06/13 08:01:25;;;;;;;5.25;1.55;;;22.20;50.60;;;;;;5039210;28;20036;-74
2022/06/13 08:03:54;;;;;;;7.40;1.60;;;22.30;49.00;;;;;;5036193;28;20575;-75
2022/06/13 08:06:21;;;;;;;3.10;1.20;;;22.50;47.30;;;;;;5038105;28;20037;-75
2022/06/13 08:08:47;;;;;;;5.65;1.38;;;22.50;46.40;;;;;;5044011;28;20030;-74
2022/06/13 08:11:24;;;;;;;5.35;1.60;;;22.80;46.90;;;;;;5038755;28;20040;-74
2022/06/13 08:13:50;;;;;;;3.80;1.23;;;23.10;45.80;;;;;;5043046;28;20064;-74
2022/06/13 08:16:15;;;;;;;4.60;1.38;;;23.50;44.80;;;;;;5037953;28;20127;-74
2022/06/13 08:18:42;;;;;;;5.43;1.45;;;23.60;44.50;;;;;;5040452;28;20041;-74
2022/06/13 08:21:09;;;;;;;2.70;1.10;;;23.70;44.30;;;;;;5038067;28;20140;-75
2022/06/13 08:23:35;;;;;;;6.07;1.90;;;23.40;44.80;;;;;;5051796;28;20567;-75
2022/06/13 08:26:01;;;;;;;13.07;2.80;;;23.30;45.40;;;;;;5033837;28;20154;-73
2022/06/13 08:28:28;;;;;;;6.95;2.03;;;23.30;46.20;;;;;;5037158;28;20562;-75
2022/06/13 08:30:59;;;;;;;6.30;1.40;;;23.50;45.00;;;;;;5040623;28;20058;-75
2022/06/13 08:33:25;;;;;;;6.68;1.73;;;23.70;44.60;;;;;;5038288;28;20025;-76
2022/06/13 08:35:51;;;;;;;6.40;1.33;;;24.00;44.70;;;;;;5036279;28;20116;-75
2022/06/13 08:38:18;;;;;;;5.47;1.77;;;24.50;44.20;;;;;;5041531;28;20492;-76
2022/06/13 08:41:01;;;;;;;10.73;2.13;;;24.80;43.00;;;;;;5037043;28;20029;-75
2022/06/13 08:43:56;;;;;;;4.53;1.95;;;24.80;44.00;;;;;;5040737;28;20428;-75
2022/06/13 08:46:40;;;;;;;11.65;2.20;;;24.70;43.50;;;;;;5033419;28;20071;-75
2022/06/13 08:49:29;;;;;;;5.93;2.13;;;24.50;44.00;;;;;;5035063;28;20033;-74
2022/06/13 08:52:16;;;;;;;6.93;1.90;;;24.50;44.10;;;;;;5041442;28;20103;-76
2022/06/13 08:54:49;;;;;;;5.88;1.90;;;24.50;44.00;;;;;;5041948;28;20023;-75
2022/06/13 08:57:16;;;;;;;5.50;1.65;;;24.70;43.70;;;;;;5030997;28;20033;-76
2022/06/13 09:00:03;;;;;;;4.45;1.80;;;24.80;43.60;;;;;;5036177;28;20036;-76
2022/06/13 09:02:40;;;;;;;6.72;1.60;;;25.20;43.40;;;;;;5036908;28;20025;-76
2022/06/13 09:05:33;;;;;;;6.18;1.85;;;25.10;42.70;;;;;;5038686;28;20036;-76
2022/06/13 09:08:33;;;;;;;9.43;2.10;;;24.80;42.80;;;;;;5037514;28;20044;-76
2022/06/13 09:11:15;;;;;;;10.07;2.53;;;24.50;42.80;;;;;;5029350;28;20091;-76
2022/06/13 09:13:47;;;;;;;5.55;1.75;;;24.20;43.30;;;;;;5038202;28;20519;-76
2022/06/13 09:16:21;;;;;;;10.35;2.17;;;24.00;43.40;;;;;;5034896;28;21021;-76
2022/06/13 09:18:49;;;;;;;7.80;1.80;;;24.00;43.30;;;;;;5030194;28;20025;-76
2022/06/13 09:21:43;;;;;;;7.90;2.60;;;24.20;42.70;;;;;;5033653;28;20036;-76
2022/06/13 09:24:19;;;;;;;8.55;2.00;;;24.30;42.70;;;;;;5036933;28;20039;-75
2022/06/13 09:26:48;;;;;;;4.80;1.27;;;24.10;43.10;;;;;;5047818;28;20036;-76
2022/06/13 09:29:46;;;;;;;5.82;1.55;;;23.70;43.70;;;;;;5035079;28;20032;-75
2022/06/13 09:32:15;;;;;;;3.70;1.67;;;23.40;43.80;;;;;;5037035;28;20037;-76
2022/06/13 09:34:58;;;;;;;6.00;1.60;;;23.60;44.00;;;;;;5032803;28;20071;-76
2022/06/13 09:37:38;;;;;;;4.38;1.50;;;24.10;43.70;;;;;;5037029;28;20098;-76
2022/06/13 09:40:04;;;;;;;3.65;1.52;;;23.80;44.40;;;;;;5046932;28;20041;-77
2022/06/13 09:42:59;;;;;;;6.32;1.38;;;23.60;45.10;;;;;;5032898;28;20444;-76
2022/06/13 09:45:34;;;;;;;6.53;1.73;;;23.60;44.50;;;;;;5036740;28;20114;-75
2022/06/13 09:48:28;;;;;;;6.45;1.90;;;23.60;44.00;;;;;;5035872;28;20405;-75
2022/06/13 09:51:25;;;;;;;9.27;2.22;;;23.50;44.30;;;;;;5036867;28;20712;-76
2022/06/13 09:54:21;;;;;;;7.38;1.88;;;23.20;44.70;;;;;;5037586;28;20020;-75
2022/06/13 09:56:59;;;;;;;6.27;1.70;;;23.10;45.70;;;;;;5033060;28;20032;-75
2022/06/13 09:59:53;;;;;;;8.48;1.80;;;23.20;46.00;;;;;;5045858;28;20646;-76
2022/06/13 10:02:25;;;;;;;5.85;1.90;;;23.50;44.00;;;;;;5040147;28;20117;-76
2022/06/13 10:05:12;;;;;;;6.63;1.95;;;23.70;43.20;;;;;;5035341;28;20808;-76
2022/06/13 10:07:51;;;;;;;5.93;1.83;;;23.80;42.50;;;;;;5035115;28;20255;-76
2022/06/13 10:10:48;;;;;;;5.00;1.60;;;24.00;42.60;;;;;;5038532;28;20086;-76
2022/06/13 10:13:29;;;;;;;4.13;1.70;;;24.30;41.20;;;;;;5035650;28;20039;-76
2022/06/13 10:16:01;;;;;;;8.30;1.77;;;24.30;39.90;;;;;;5030349;28;20045;-76
2022/06/13 10:18:46;;;;;;;3.47;1.38;;;24.30;39.90;;;;;;5038855;28;20047;-76
2022/06/13 10:21:15;;;;;;;4.68;1.20;;;24.30;40.30;;;;;;5035340;28;20056;-75
2022/06/13 10:24:17;;;;;;;5.28;1.40;;;24.30;39.50;;;;;;5035776;28;20538;-75
2022/06/13 10:26:52;;;;;;;7.53;1.13;;;24.40;38.20;;;;;;5037904;28;20036;-76
2022/06/13 10:29:43;;;;;;;5.53;1.10;;;24.60;37.80;;;;;;5029776;28;20051;-76
2022/06/13 10:32:32;;;;;;;4.88;1.40;;;24.60;36.50;;;;;;5039271;28;20099;-76
2022/06/13 10:35:22;;;;;;;6.40;1.23;;;24.80;36.80;;;;;;5038549;28;20686;-76
2022/06/13 10:38:41;;;;;;;4.72;1.35;;;25.40;36.20;;;;;;5041063;28;20031;-76
2022/06/13 10:41:08;;;;;;;8.73;2.00;;;25.60;35.20;;;;;;5019918;28;20029;-75
2022/06/13 10:43:36;;;;;;;4.38;1.30;;;25.50;35.10;;;;;;5038229;28;20086;-76
2022/06/13 10:46:01;;;;;;;6.53;1.45;;;25.30;35.90;;;;;;5048783;28;20090;-76
2022/06/13 10:48:36;;;;;;;4.10;1.00;;;25.10;36.60;;;;;;5043867;28;20056;-75
2022/06/13 10:51:04;;;;;;;4.72;1.05;;;24.80;36.80;;;;;;5042409;28;20457;-76
2022/06/13 10:53:41;;;;;;;5.55;1.02;;;25.80;35.40;;;;;;5044572;28;20083;-75
2022/06/13 10:56:36;;;;;;;3.55;1.25;;;26.40;34.20;;;;;;5040124;28;20044;-76
2022/06/13 10:59:02;;;;;;;8.82;1.40;;;26.10;33.80;;;;;;5061820;28;20029;-76
2022/06/13 11:01:30;;;;;;;6.22;1.42;;;25.90;34.50;;;;;;5039939;28;20603;-76
2022/06/13 11:04:25;;;;;;;3.83;1.27;;;25.60;35.40;;;;;;5039172;28;20037;-76
2022/06/13 11:06:54;;;;;;;3.03;1.20;;;25.30;36.40;;;;;;5047769;28;20578;-76
2022/06/13 11:09:35;;;;;;;6.28;1.40;;;24.90;35.50;;;;;;5038866;28;20025;-76
2022/06/13 11:12:04;;;;;;;6.10;1.50;;;24.50;36.40;;;;;;5044982;28;20037;-76
2022/06/13 11:23:01;;;;;;;2.03;1.20;;;25.20;36.00;;;;;;5042085;28;20095;-75
2022/06/13 11:25:33;;;;;;;2.67;1.05;;;25.50;36.00;;;;;;5045385;28;20037;-75
2022/06/13 11:28:03;;;;;;;5.72;1.30;;;25.40;35.60;;;;;;5044335;28;20044;-75
2022/06/13 11:30:43;;;;;;;4.82;1.50;;;25.10;36.00;;;;;;5048027;28;20036;-75
2022/06/13 11:33:32;;;;;;;4.03;1.60;;;25.00;36.20;;;;;;5048194;28;20029;-75
2022/06/13 11:36:16;;;;;;;3.60;1.13;;;25.10;37.40;;;;;;5038171;28;20036;-76
2022/06/13 11:38:54;;;;;;;5.03;1.40;;;25.10;38.90;;;;;;5041177;28;20043;-75
2022/06/13 11:41:32;;;;;;;6.22;1.58;;;25.30;38.00;;;;;;5042603;28;20060;-76
2022/06/13 11:44:05;;;;;;;4.55;1.27;;;25.50;38.00;;;;;;5045867;28;20035;-76
2022/06/13 11:46:35;;;;;;;3.78;1.40;;;25.50;37.80;;;;;;5040776;28;20044;-76
2022/06/13 11:49:15;;;;;;;4.20;1.30;;;25.20;37.40;;;;;;5045103;28;20040;-75
2022/06/13 11:52:11;;;;;;;10.82;1.90;;;24.70;38.20;;;;;;5034607;28;20116;-75
2022/06/13 11:54:40;;;;;;;7.65;1.67;;;24.20;40.10;;;;;;5042812;28;20128;-73
2022/06/13 11:57:19;;;;;;;7.45;1.27;;;24.00;41.70;;;;;;5040463;28;20033;-76
2022/06/13 12:00:08;;;;;;;5.45;1.50;;;23.80;42.20;;;;;;5037390;28;20033;-76
2022/06/13 12:02:36;;;;;;;5.65;1.60;;;23.50;43.40;;;;;;5039987;28;20041;-76
2022/06/13 12:05:13;;;;;;;6.35;1.58;;;23.20;43.60;;;;;;5053522;28;20032;-76
2022/06/13 12:07:51;;;;;;;5.63;1.50;;;23.00;44.60;;;;;;5035300;28;20036;-76
2022/06/13 12:10:25;;;;;;;5.10;1.23;;;22.80;45.10;;;;;;5038716;28;20025;-75
2022/06/13 12:12:51;;;;;;;6.20;1.48;;;22.50;45.50;;;;;;5035261;28;20555;-75
2022/06/13 12:15:18;;;;;;;3.17;1.30;;;22.20;46.00;;;;;;5046252;28;20737;-75
2022/06/13 12:18:00;;;;;;;2.47;1.48;;;22.00;46.70;;;;;;5047178;28;20040;-75
2022/06/13 12:20:39;;;;;;;9.35;1.52;;;22.00;46.10;;;;;;5058910;28;20135;-75
2022/06/13 12:23:10;;;;;;;5.03;1.08;;;22.00;46.20;;;;;;5034228;28;20057;-75
2022/06/13 12:25:44;;;;;;;3.10;1.00;;;22.00;46.20;;;;;;5039203;28;20119;-75
2022/06/13 12:28:16;;;;;;;2.42;1.33;;;22.30;45.90;;;;;;5042583;28;20033;-75
2022/06/13 12:31:08;;;;;;;5.32;1.00;;;22.60;44.60;;;;;;5036358;28;20029;-75
2022/06/13 12:33:54;;;;;;;5.30;1.08;;;22.70;44.60;;;;;;5044613;28;20032;-75
2022/06/13 12:36:29;;;;;;;3.05;0.90;;;22.90;42.80;;;;;;5039386;28;20025;-76
2022/06/13 12:39:32;;;;;;;4.50;1.00;;;22.90;43.80;;;;;;5036095;28;20025;-75
2022/06/13 12:41:58;;;;;;;2.05;0.95;;;22.80;43.80;;;;;;5044909;28;20040;-75
2022/06/13 12:44:33;;;;;;;4.32;1.02;;;22.50;43.20;;;;;;5048080;28;20086;-75
2022/06/13 12:47:07;;;;;;;4.35;0.93;;;22.10;43.50;;;;;;5040796;28;20090;-76
2022/06/13 12:49:55;;;;;;;3.17;1.00;;;21.60;44.80;;;;;;5035379;28;20421;-75
2022/06/13 12:52:20;;;;;;;3.45;1.50;;;21.30;45.20;;;;;;5049448;28;20031;-75
2022/06/13 12:54:49;;;;;;;3.28;1.40;;;21.10;46.70;;;;;;5029848;28;20408;-75
2022/06/13 12:57:39;;;;;;;3.63;1.40;;;20.90;47.10;;;;;;5041295;28;20052;-75
2022/06/13 13:00:33;;;;;;;3.88;1.30;;;20.90;47.80;;;;;;5035480;28;20067;-75
2022/06/13 13:03:06;;;;;;;3.28;1.40;;;21.20;47.80;;;;;;5038710;28;20043;-76
2022/06/13 13:05:41;;;;;;;6.03;1.30;;;21.70;47.80;;;;;;5047303;28;20071;-75
2022/06/13 13:08:43;;;;;;;4.47;1.40;;;22.20;47.10;;;;;;5035290;28;20031;-76
2022/06/13 13:11:12;;;;;;;2.92;1.20;;;22.50;47.10;;;;;;5032787;28;20043;-75
2022/06/13 13:13:45;;;;;;;3.97;1.40;;;22.60;46.90;;;;;;5045228;28;20365;-75
2022/06/13 13:16:35;;;;;;;2.28;1.17;;;22.60;47.90;;;;;;5040387;28;20511;-76
2022/06/13 13:19:26;;;;;;;3.60;1.00;;;22.60;46.60;;;;;;5042619;28;20029;-76
2022/06/13 13:22:22;;;;;;;3.80;1.30;;;22.50;47.00;;;;;;5033545;28;20044;-76
2022/06/13 13:25:30;;;;;;;2.35;0.93;;;22.30;48.10;;;;;;5038241;28;20055;-76
2022/06/13 13:28:52;;;;;;;3.33;1.10;;;22.40;47.80;;;;;;5045014;28;20029;-75
2022/06/13 13:31:18;;;;;;;2.25;0.88;;;22.60;46.70;;;;;;4959794;28;20098;-76
2022/06/13 13:34:16;;;;;;;2.15;0.90;;;22.60;46.20;;;;;;5024104;28;20032;-76
2022/06/13 13:37:19;;;;;;;3.33;0.95;;;22.60;45.90;;;;;;5038823;28;20112;-76
2022/06/13 13:40:08;;;;;;;3.22;0.82;;;22.70;45.70;;;;;;5027833;28;20037;-76
2022/06/13 13:43:05;;;;;;;2.05;0.85;;;22.70;45.20;;;;;;5034630;28;20029;-76
2022/06/13 13:45:36;;;;;;;2.83;0.68;;;22.60;44.80;;;;;;5043837;28;20041;-76
2022/06/13 13:48:30;;;;;;;2.85;0.90;;;22.60;45.30;;;;;;5053822;28;20044;-76
2022/06/13 13:51:29;;;;;;;4.10;0.80;;;22.60;45.60;;;;;;5035646;28;20203;-75